x

Capers Nearshore (cap 2) (41029) Weather Station

12:08pm - Tue 30th Aug 2016 All times are EDT. -4 hours from GMT.

  • Wind
    11mph, 22mph gusts
  • Sea Temp 83°f
  • Air Temp 79°f
  • Sea Pressure 1018.8mb
  • Capers Nearshore (cap 2)
  • Capers Nearshore (cap 2)

More Historic Weather Station data

Upgrade to MSW Pro to gain access to the past 30 days of data for over 8000 Wavebouys and Weather Stations around the globe.

Join Pro

Comparision Forecast

View Surf forecast
   
Tue 08/30 12:08pm 11 22 mph 1018.8mb 83f 79f
11:08am 11 16 mph 1019.1mb 83f 80f
10:08am 11 16 mph 1018.5mb 83f 80f
9:08am 11 13 mph 1017.4mb 83f 79f
8:08am 11 16 mph 1017.3mb 83f 79f
7:08am 9 13 mph 1016.7mb 83f 79f
6:08am 11 16 mph 1015.8mb 83f 80f
5:08am 11 16 mph 1015.9mb 84f 80f
4:08am 11 13 mph 1016.1mb 84f 80f
3:08am 11 16 mph 1016.4mb 84f 81f
2:08am 11 16 mph 1016.8mb 84f 82f
1:08am 11 16 mph 1017mb 84f 83f
12:08am 11 13 mph 1017.4mb 84f 83f
Mon 08/29 11:08pm 9 13 mph 1017.1mb 84f 82f
10:08pm 11 18 mph 1017.1mb 84f 82f
9:08pm 13 18 mph 1017mb 84f 83f
8:08pm 13 18 mph 1016.6mb 84f 82f
7:08pm 11 16 mph 1016.5mb 84f 82f
6:08pm 13 18 mph 1016.6mb 84f 82f
5:08pm 13 18 mph 1017.1mb 84f 82f
4:08pm 16 20 mph 1017mb 84f 82f
3:08pm 13 18 mph 1017.3mb 84f 82f
2:08pm 13 18 mph 1017.9mb 84f 82f
1:08pm 11 16 mph 1018mb 84f 82f
12:08pm 9 11 mph 1018.5mb 84f 80f
11:08am 18 25 mph 1018.4mb 84f 78f
10:08am 13 18 mph 1018.4mb 84f 79f
9:08am 13 18 mph 1018mb 84f 79f
8:08am 11 13 mph 1017.7mb 84f 80f
7:08am 11 18 mph 1017.3mb 84f 81f
6:08am 11 18 mph 1016.9mb 84f 81f
5:08am 13 18 mph 1016.8mb 84f 82f
4:08am 13 18 mph 1016.6mb 84f 81f
3:08am 13 18 mph 1017mb 84f 81f
2:08am 11 16 mph 1017.3mb 84f 81f
1:08am 13 18 mph 1017.7mb 84f 82f
12:08am 13 18 mph 1018.1mb 84f 83f
Sun 08/28 11:08pm 16 20 mph 1018.2mb 84f 83f
10:08pm 18 22 mph 1017.8mb 84f 83f
9:08pm 16 22 mph 1017.4mb 84f 83f
8:08pm 11 18 mph 1017.3mb 84f 82f
7:08pm 18 25 mph 1017mb 84f 83f
6:08pm 16 20 mph 1016.9mb 84f 83f
5:08pm 18 22 mph 1017.1mb 84f 83f
4:08pm 18 22 mph 1017.5mb 84f 83f
3:08pm 16 20 mph 1018mb 84f 83f
2:08pm 13 20 mph 1018.7mb 84f 84f
1:08pm 16 18 mph 1019.1mb 84f 83f
12:08pm 13 18 mph 1019.5mb 84f 83f
11:08am 16 22 mph 1019.7mb 84f 82f
10:08am 16 20 mph 1019.5mb 84f 82f
9:08am 13 18 mph 1019.3mb 84f 81f
8:08am 13 18 mph 1019.1mb 84f 81f
7:08am 13 16 mph 1018.5mb 84f 81f
6:08am 11 13 mph 1018mb 84f 80f
5:08am 11 13 mph 1018mb 84f 81f
4:08am 13 18 mph 1017.7mb 84f 82f
3:08am 11 16 mph 1017.9mb 84f 83f
2:08am 11 16 mph 1018mb 84f 83f
1:08am 11 13 mph 1018.5mb 84f 83f
12:08am 9 13 mph 1019mb 85f 83f
Sat 08/27 11:08pm 11 13 mph 1019mb 85f 83f
10:08pm 9 13 mph 1019mb 85f 83f
9:08pm 9 13 mph 1018.2mb 85f 83f
8:08pm 11 18 mph 1017.3mb 85f 83f
7:08pm 11 16 mph 1016.8mb 85f 83f
6:08pm 11 16 mph 1016.8mb 85f 83f
5:08pm 13 18 mph 1017.7mb 85f 83f
4:08pm 11 16 mph 1017.9mb 85f 83f
3:08pm 13 18 mph 1018.1mb 85f 83f
2:08pm 13 18 mph 1018.6mb 85f 83f
1:08pm 16 20 mph 1018.4mb 84f 83f
12:08pm 16 20 mph 1018.9mb 84f 83f
11:08am 16 20 mph 1019.2mb 84f 82f
10:08am 16 20 mph 1018.8mb 84f 82f
9:08am 11 18 mph 1018.6mb 84f 82f
8:08am 11 18 mph 1018.1mb 84f 82f
7:08am 13 18 mph 1017.6mb 84f 82f
6:08am 13 18 mph 1017.4mb 84f 82f
5:08am 11 18 mph 1017mb 84f 81f
4:08am 11 13 mph 1017.3mb 84f 81f
3:08am 7 11 mph 1017.7mb 84f 81f
2:08am 4 9 mph 1018mb 84f 82f
1:08am 7 11 mph 1018.1mb 84f 82f
12:08am 9 13 mph 1018.5mb 84f 82f
Fri 08/26 11:08pm 9 13 mph 1018.4mb 84f 82f
10:08pm 11 16 mph 1017.9mb 84f 82f
9:08pm 11 16 mph 1017.2mb 85f 82f
8:08pm 9 16 mph 1017mb 85f 82f
7:08pm 9 13 mph 1017mb 84f 83f
6:08pm 9 16 mph 1017.1mb 84f 83f